createdAt,value
2022-09-02T00:00:50.926Z,100759.00
2022-09-02T00:05:50.917Z,100757.00
2022-09-02T00:10:51.034Z,100757.00
2022-09-02T00:15:51.143Z,100751.00
2022-09-02T00:20:51.228Z,100753.00
2022-09-02T00:25:50.977Z,100747.00
2022-09-02T00:30:50.964Z,100741.00
2022-09-02T00:35:51.048Z,100745.00
2022-09-02T00:40:51.374Z,100741.00
2022-09-02T00:45:51.256Z,100737.00
2022-09-02T00:50:51.026Z,100735.00
2022-09-02T00:55:51.460Z,100730.00
2022-09-02T01:00:52.085Z,100728.00
2022-09-02T01:05:51.974Z,100726.00
2022-09-02T01:10:52.468Z,100726.00
2022-09-02T01:15:52.148Z,100724.00
2022-09-02T01:20:52.074Z,100724.00
2022-09-02T01:25:52.142Z,100726.00
2022-09-02T01:30:52.037Z,100724.00
2022-09-02T01:35:51.973Z,100722.00
2022-09-02T01:40:52.685Z,100720.00
2022-09-02T01:45:53.920Z,100714.00
2022-09-02T01:50:54.259Z,100708.00
2022-09-02T01:55:54.342Z,100706.00
2022-09-02T02:00:54.301Z,100702.00
2022-09-02T02:05:55.028Z,100704.00
2022-09-02T02:10:56.893Z,100706.00
2022-09-02T02:15:57.156Z,100706.00
2022-09-02T02:20:57.096Z,100706.00
2022-09-02T02:25:57.058Z,100706.00
2022-09-02T02:30:57.203Z,100704.00
2022-09-02T02:35:57.244Z,100706.00
2022-09-02T02:40:57.905Z,100704.00
2022-09-02T02:45:58.244Z,100704.00
2022-09-02T02:50:58.220Z,100704.00
2022-09-02T02:55:58.337Z,100702.00
2022-09-02T03:00:58.504Z,100704.00
2022-09-02T03:05:59.153Z,100698.00
2022-09-02T03:11:00.996Z,100696.00
2022-09-02T03:16:01.287Z,100696.00
2022-09-02T03:21:01.239Z,100700.00
2022-09-02T03:26:03.051Z,100700.00
2022-09-02T03:31:03.223Z,100698.00
2022-09-02T03:36:03.457Z,100696.00
2022-09-02T03:41:03.146Z,100696.00
2022-09-02T03:46:03.691Z,100700.00
2022-09-02T03:51:05.476Z,100694.00
2022-09-02T03:56:05.189Z,100692.00
2022-09-02T04:01:05.300Z,100692.00
2022-09-02T04:06:05.598Z,100690.00
2022-09-02T04:11:05.215Z,100692.00
2022-09-02T04:16:05.353Z,100692.00
2022-09-02T04:21:08.524Z,100694.00
2022-09-02T04:26:08.355Z,100692.00
2022-09-02T04:31:10.186Z,100690.00
2022-09-02T04:36:12.781Z,100690.00
2022-09-02T04:41:14.234Z,100688.00
2022-09-02T04:46:16.070Z,100690.00
2022-09-02T04:51:16.830Z,100688.00
2022-09-02T04:56:18.050Z,100692.00
2022-09-02T05:01:18.587Z,100692.00
2022-09-02T05:06:20.397Z,100690.00
2022-09-02T05:11:23.088Z,100690.00
2022-09-02T05:16:23.730Z,100692.00
2022-09-02T05:21:24.697Z,100690.00
2022-09-02T05:26:25.122Z,100694.00
2022-09-02T05:31:26.729Z,100690.00
2022-09-02T05:36:28.483Z,100692.00
2022-09-02T05:41:30.117Z,100690.00
2022-09-02T05:46:30.961Z,100688.00
2022-09-02T05:51:31.364Z,100690.00
2022-09-02T05:56:31.582Z,100692.00
2022-09-02T06:01:33.226Z,100688.00
2022-09-02T06:06:33.323Z,100690.00
2022-09-02T06:11:34.631Z,100690.00
2022-09-02T06:16:34.508Z,100690.00
2022-09-02T06:21:34.405Z,100690.00
2022-09-02T06:26:35.681Z,100690.00
2022-09-02T06:31:36.187Z,100688.00
2022-09-02T06:36:36.550Z,100690.00
2022-09-02T06:41:38.113Z,100692.00
2022-09-02T06:46:40.155Z,100698.00
2022-09-02T06:51:40.604Z,100696.00
2022-09-02T06:56:40.831Z,100694.00
2022-09-02T07:01:42.119Z,100698.00
2022-09-02T07:06:42.454Z,100704.00
2022-09-02T07:11:43.037Z,100698.00
2022-09-02T07:16:43.506Z,100694.00
2022-09-02T07:21:43.877Z,100690.00
2022-09-02T07:26:44.425Z,100683.00
2022-09-02T07:31:44.369Z,100675.00
2022-09-02T07:36:46.907Z,100677.00
2022-09-02T07:41:47.905Z,100667.00
2022-09-02T07:46:49.167Z,100665.00
2022-09-02T07:51:49.800Z,100661.00
2022-09-02T07:56:51.094Z,100661.00
2022-09-02T08:01:51.780Z,100661.00
2022-09-02T08:06:52.379Z,100655.00
2022-09-02T08:11:52.321Z,100655.00
2022-09-02T08:16:52.756Z,100649.00
2022-09-02T08:21:52.299Z,100653.00
2022-09-02T08:26:52.329Z,100649.00
2022-09-02T08:31:54.082Z,100643.00
2022-09-02T08:36:56.730Z,100643.00
2022-09-02T08:41:56.369Z,100639.00
2022-09-02T08:46:56.371Z,100639.00
2022-09-02T08:51:56.478Z,100636.00
2022-09-02T08:56:58.497Z,100628.00
2022-09-02T09:01:58.439Z,100630.00
2022-09-02T09:07:00.509Z,100626.00
2022-09-02T09:12:00.432Z,100620.00
2022-09-02T09:17:00.478Z,100616.00
2022-09-02T09:22:02.345Z,100612.00
2022-09-02T09:27:02.392Z,100600.00
2022-09-02T09:32:02.590Z,100594.00
2022-09-02T09:37:02.868Z,100585.00
2022-09-02T09:42:02.812Z,100573.00
2022-09-02T09:47:02.425Z,100571.00
2022-09-02T09:52:02.471Z,100561.00
2022-09-02T09:57:02.392Z,100561.00
2022-09-02T10:02:02.500Z,100555.00
2022-09-02T10:07:02.521Z,100555.00
2022-09-02T10:12:03.521Z,100551.00
2022-09-02T10:17:03.406Z,100549.00
2022-09-02T10:22:03.695Z,100531.00
2022-09-02T10:27:03.470Z,100531.00
2022-09-02T10:32:03.597Z,100531.00
2022-09-02T10:37:03.498Z,100525.00
2022-09-02T10:42:03.536Z,100519.00
2022-09-02T10:47:06.574Z,100517.00
2022-09-02T10:52:06.504Z,100515.00
2022-09-02T10:57:06.550Z,100511.00
2022-09-02T11:02:07.464Z,100511.00
2022-09-02T11:07:07.567Z,100507.00
2022-09-02T11:12:08.307Z,100505.00
2022-09-02T11:17:12.887Z,100502.00
2022-09-02T11:22:10.653Z,100498.00
2022-09-02T11:27:25.774Z,100494.00
2022-09-02T11:32:12.902Z,100492.00
2022-09-02T11:37:13.928Z,100490.00
2022-09-02T11:42:14.640Z,100488.00
2022-09-02T11:47:15.026Z,100486.00
2022-09-02T11:52:16.550Z,100482.00
2022-09-02T11:57:16.668Z,100482.00
2022-09-02T12:02:16.686Z,100480.00
2022-09-02T12:07:18.422Z,100474.00
2022-09-02T12:12:18.630Z,100472.00
2022-09-02T12:17:18.643Z,100466.00
2022-09-02T12:22:21.439Z,100460.00
2022-09-02T12:27:22.210Z,100457.00
2022-09-02T12:32:25.626Z,100445.00
2022-09-02T12:37:25.562Z,100441.00
2022-09-02T12:42:25.615Z,100443.00
2022-09-02T12:47:26.664Z,100445.00
2022-09-02T12:52:26.578Z,100439.00
2022-09-02T12:57:26.690Z,100433.00
2022-09-02T13:02:29.633Z,100431.00
2022-09-02T13:07:28.554Z,100425.00
2022-09-02T13:12:30.019Z,100423.00
2022-09-02T13:17:38.637Z,100423.00
2022-09-02T13:22:33.571Z,100423.00
2022-09-02T13:27:35.764Z,100417.00
2022-09-02T13:32:36.094Z,100408.00
2022-09-02T13:37:36.698Z,100408.00
2022-09-02T13:42:37.322Z,100404.00
2022-09-02T13:47:37.633Z,100398.00
2022-09-02T13:53:34.414Z,100396.00
2022-09-02T13:57:40.121Z,100386.00
2022-09-02T14:02:39.925Z,100384.00
2022-09-02T14:07:39.614Z,100388.00
2022-09-02T14:12:39.644Z,100374.00
2022-09-02T14:17:39.609Z,100366.00
2022-09-02T14:22:39.641Z,100364.00
2022-09-02T14:27:39.625Z,100366.00
2022-09-02T14:32:39.659Z,100357.00
2022-09-02T14:37:39.730Z,100355.00
2022-09-02T14:42:39.630Z,100349.00
2022-09-02T14:47:39.765Z,100349.00
2022-09-02T14:52:39.684Z,100339.00
2022-09-02T14:57:41.573Z,100339.00
2022-09-02T15:02:42.944Z,100335.00
2022-09-02T15:07:42.684Z,100333.00
2022-09-02T15:12:42.679Z,100327.00
2022-09-02T15:17:42.676Z,100327.00
2022-09-02T15:22:42.837Z,100323.00
2022-09-02T15:27:42.667Z,100319.00
2022-09-02T15:32:42.676Z,100315.00
2022-09-02T15:37:42.734Z,100311.00
2022-09-02T15:42:42.738Z,100311.00
2022-09-02T15:47:42.793Z,100308.00
2022-09-02T15:52:44.590Z,100300.00
2022-09-02T15:57:45.006Z,100302.00
2022-09-02T16:02:45.812Z,100296.00
2022-09-02T16:07:45.855Z,100296.00
2022-09-02T16:12:47.594Z,100296.00
2022-09-02T16:17:48.640Z,100294.00
2022-09-02T16:22:49.117Z,100294.00
2022-09-02T16:27:55.916Z,100290.00
2022-09-02T16:32:55.713Z,100286.00
2022-09-02T16:37:57.146Z,100276.00
2022-09-02T16:42:56.739Z,100276.00
2022-09-02T16:47:57.353Z,100274.00
2022-09-02T16:52:57.754Z,100266.00
2022-09-02T16:57:59.725Z,100264.00
2022-09-02T17:02:59.755Z,100262.00
2022-09-02T17:08:01.499Z,100262.00
2022-09-02T17:13:01.771Z,100260.00
2022-09-02T17:18:01.775Z,100262.00
2022-09-02T17:23:03.710Z,100260.00
2022-09-02T17:28:03.792Z,100260.00
2022-09-02T17:33:04.599Z,100260.00
2022-09-02T17:38:04.876Z,100262.00
2022-09-02T17:43:04.784Z,100268.00
2022-09-02T17:48:31.785Z,100268.00
2022-09-02T17:53:06.828Z,100268.00
2022-09-02T17:58:06.824Z,100270.00
2022-09-02T18:03:12.425Z,100266.00
2022-09-02T18:08:08.939Z,100262.00
2022-09-02T18:13:08.813Z,100258.00
2022-09-02T18:18:08.875Z,100256.00
2022-09-02T18:23:09.542Z,100260.00
2022-09-02T18:28:09.941Z,100258.00
2022-09-02T18:33:10.835Z,100260.00
2022-09-02T18:38:10.972Z,100258.00
2022-09-02T18:43:12.470Z,100262.00
2022-09-02T18:48:12.965Z,100264.00
2022-09-02T18:53:13.003Z,100266.00
2022-09-02T18:58:12.863Z,100266.00
2022-09-02T19:03:13.331Z,100272.00
2022-09-02T19:08:32.638Z,100274.00
2022-09-02T19:13:33.509Z,100278.00
2022-09-02T19:18:34.019Z,100290.00
2022-09-02T19:23:34.004Z,100290.00
2022-09-02T19:28:33.919Z,100294.00
2022-09-02T19:33:33.924Z,100294.00
2022-09-02T19:38:34.044Z,100296.00
2022-09-02T19:43:35.403Z,100294.00
2022-09-02T19:48:35.445Z,100296.00
2022-09-02T19:53:36.478Z,100292.00
2022-09-02T19:58:37.226Z,100294.00
2022-09-02T20:03:37.909Z,100288.00
2022-09-02T20:08:38.064Z,100288.00
2022-09-02T20:13:41.438Z,100292.00
2022-09-02T20:18:39.910Z,100288.00
2022-09-02T20:23:39.977Z,100288.00
2022-09-02T20:28:43.761Z,100288.00
2022-09-02T20:33:41.980Z,100288.00
2022-09-02T20:38:42.077Z,100278.00
2022-09-02T20:43:42.022Z,100276.00
2022-09-02T20:48:42.121Z,100274.00
2022-09-02T20:53:42.633Z,100272.00
2022-09-02T20:58:42.950Z,100270.00
2022-09-02T21:03:43.016Z,100272.00
2022-09-02T21:08:44.992Z,100266.00
2022-09-02T21:13:45.078Z,100266.00
2022-09-02T21:18:45.136Z,100266.00
2022-09-02T21:23:44.941Z,100268.00
2022-09-02T21:28:45.165Z,100268.00
2022-09-02T21:33:45.041Z,100264.00
2022-09-02T21:38:45.136Z,100266.00
2022-09-02T21:43:44.986Z,100262.00
2022-09-02T21:48:44.990Z,100264.00
2022-09-02T21:53:45.113Z,100260.00
2022-09-02T21:58:46.798Z,100262.00
2022-09-02T22:03:47.179Z,100260.00
2022-09-02T22:08:47.146Z,100256.00
2022-09-02T22:13:47.778Z,100254.00
2022-09-02T22:18:50.892Z,100252.00
2022-09-02T22:23:52.892Z,100250.00
2022-09-02T22:28:53.119Z,100246.00
2022-09-02T22:33:55.678Z,100250.00
2022-09-02T22:38:58.020Z,100250.00
2022-09-02T22:43:58.106Z,100250.00
2022-09-02T22:49:16.297Z,100248.00
2022-09-02T22:54:17.045Z,100244.00
2022-09-02T22:59:17.587Z,100246.00
2022-09-02T23:04:17.144Z,100246.00
2022-09-02T23:09:18.117Z,100246.00
2022-09-02T23:14:18.858Z,100244.00
2022-09-02T23:19:19.086Z,100240.00
2022-09-02T23:24:19.409Z,100242.00
2022-09-02T23:29:20.953Z,100242.00
2022-09-02T23:34:23.685Z,100244.00
2022-09-02T23:39:24.718Z,100236.00
2022-09-02T23:44:25.272Z,100229.00
2022-09-02T23:49:27.208Z,100227.00
2022-09-02T23:54:27.108Z,100225.00
2022-09-02T23:59:27.136Z,100227.00
